createdAt,value
2019-01-04T00:00:19.885Z,1028.54
2019-01-04T00:01:19.926Z,1028.58
2019-01-04T00:02:19.904Z,1028.56
2019-01-04T00:03:19.925Z,1028.53
2019-01-04T00:04:19.926Z,1028.55
2019-01-04T00:05:19.938Z,1028.58
2019-01-04T00:06:19.954Z,1028.49
2019-01-04T00:07:19.961Z,1028.49
2019-01-04T00:08:19.977Z,1028.49
2019-01-04T00:09:19.985Z,1028.5
2019-01-04T00:10:20.005Z,1028.45
2019-01-04T00:11:20.013Z,1028.48
2019-01-04T00:12:20.021Z,1028.45
2019-01-04T00:14:20.044Z,1028.45
2019-01-04T00:15:20.059Z,1028.43
2019-01-04T00:16:20.067Z,1028.44
2019-01-04T00:17:20.083Z,1028.42
2019-01-04T00:18:20.089Z,1028.41
2019-01-04T00:19:20.102Z,1028.41
2019-01-04T00:20:20.113Z,1028.42
2019-01-04T00:21:20.270Z,1028.39
2019-01-04T00:22:20.141Z,1028.38
2019-01-04T00:23:20.148Z,1028.39
2019-01-04T00:24:20.160Z,1028.42
2019-01-04T00:25:20.172Z,1028.38
2019-01-04T00:26:20.188Z,1028.37
2019-01-04T00:27:20.195Z,1028.39
2019-01-04T00:28:20.211Z,1028.41
2019-01-04T00:30:20.234Z,1028.45
2019-01-04T00:31:20.243Z,1028.47
2019-01-04T00:32:20.258Z,1028.49
2019-01-04T00:33:20.265Z,1028.45
2019-01-04T00:34:20.279Z,1028.46
2019-01-04T00:35:20.290Z,1028.46
2019-01-04T00:36:20.306Z,1028.48
2019-01-04T00:37:20.313Z,1028.49
2019-01-04T00:38:20.329Z,1028.49
2019-01-04T00:39:20.337Z,1028.54
2019-01-04T00:40:20.352Z,1028.54
2019-01-04T00:41:20.360Z,1028.54
2019-01-04T00:42:20.375Z,1028.53
2019-01-04T00:43:20.388Z,1028.48
2019-01-04T00:44:20.401Z,1028.47
2019-01-04T00:46:20.419Z,1028.42
2019-01-04T00:47:20.435Z,1028.45
2019-01-04T00:48:20.442Z,1028.38
2019-01-04T00:49:20.459Z,1028.36
2019-01-04T00:50:20.466Z,1028.39
2019-01-04T00:51:20.482Z,1028.33
2019-01-04T00:52:20.494Z,1028.3
2019-01-04T00:53:20.502Z,1028.31
2019-01-04T00:54:20.519Z,1028.31
2019-01-04T00:55:20.525Z,1028.3
2019-01-04T00:56:20.542Z,1028.3
2019-01-04T00:57:20.549Z,1028.3
2019-01-04T00:58:20.566Z,1028.28
2019-01-04T00:59:20.581Z,1028.28
2019-01-04T01:01:20.602Z,1028.36
2019-01-04T01:02:20.614Z,1028.33
2019-01-04T01:03:20.622Z,1028.34
2019-01-04T01:04:20.638Z,1028.36
2019-01-04T01:05:20.646Z,1028.37
2019-01-04T01:06:20.661Z,1028.41
2019-01-04T01:07:20.669Z,1028.36
2019-01-04T01:08:20.685Z,1028.35
2019-01-04T01:09:20.696Z,1028.4
2019-01-04T01:10:20.706Z,1028.41
2019-01-04T01:11:20.717Z,1028.39
2019-01-04T01:12:20.729Z,1028.41
2019-01-04T01:13:20.746Z,1028.42
2019-01-04T01:14:20.753Z,1028.41
2019-01-04T01:15:20.769Z,1028.39
2019-01-04T01:16:20.781Z,1028.41
2019-01-04T01:17:20.819Z,1028.4
2019-01-04T01:18:20.803Z,1028.38
2019-01-04T01:19:20.816Z,1028.39
2019-01-04T01:20:20.829Z,1028.33
2019-01-04T01:21:20.836Z,1028.35
2019-01-04T01:22:20.853Z,1028.33
2019-01-04T01:23:20.867Z,1028.28
2019-01-04T01:24:20.877Z,1028.3
2019-01-04T01:25:20.885Z,1028.3
2019-01-04T01:26:20.901Z,1028.31
2019-01-04T01:27:20.909Z,1028.31
2019-01-04T01:28:20.926Z,1028.35
2019-01-04T01:29:20.932Z,1028.31
2019-01-04T01:30:20.951Z,1028.31
2019-01-04T01:31:20.956Z,1028.3
2019-01-04T01:33:20.986Z,1028.31
2019-01-04T01:34:20.994Z,1028.31
2019-01-04T01:35:21.009Z,1028.32
2019-01-04T01:36:21.017Z,1028.32
2019-01-04T01:37:21.034Z,1028.34
2019-01-04T01:38:21.042Z,1028.34
2019-01-04T01:39:21.058Z,1028.34
2019-01-04T01:40:21.066Z,1028.32
2019-01-04T01:41:21.082Z,1028.28
2019-01-04T01:42:21.090Z,1028.25
2019-01-04T01:43:21.102Z,1028.23
2019-01-04T01:44:21.119Z,1028.17
2019-01-04T01:45:21.127Z,1028.15
2019-01-04T01:46:21.142Z,1028.14
2019-01-04T01:47:21.150Z,1028.18
2019-01-04T01:49:21.175Z,1028.13
2019-01-04T01:50:21.187Z,1028.14
2019-01-04T01:51:21.203Z,1028.15
2019-01-04T01:52:21.211Z,1028.17
2019-01-04T01:53:21.229Z,1028.17
2019-01-04T01:54:21.240Z,1028.14
2019-01-04T01:55:21.248Z,1028.11
2019-01-04T01:56:21.266Z,1028.15
2019-01-04T01:57:21.277Z,1028.13
2019-01-04T01:58:21.289Z,1028.14
2019-01-04T01:59:21.297Z,1028.13
2019-01-04T02:00:21.316Z,1028.12
2019-01-04T02:01:21.329Z,1028.07
2019-01-04T02:02:21.338Z,1028.05
2019-01-04T02:03:21.351Z,1028.06
2019-01-04T02:05:21.374Z,1028.03
2019-01-04T02:06:21.383Z,1028.07
2019-01-04T02:07:21.395Z,1028.1
2019-01-04T02:08:21.411Z,1028.07
2019-01-04T02:09:21.420Z,1028.05
2019-01-04T02:10:21.436Z,1028.07
2019-01-04T02:11:21.444Z,1028.06
2019-01-04T02:12:21.462Z,1028.06
2019-01-04T02:13:21.469Z,1028.03
2019-01-04T02:14:21.481Z,1028.04
2019-01-04T02:15:21.497Z,1027.95
2019-01-04T02:16:21.505Z,1028.01
2019-01-04T02:17:21.521Z,1027.93
2019-01-04T02:18:21.535Z,1027.89
2019-01-04T02:19:21.546Z,1027.9
2019-01-04T02:21:21.571Z,1027.86
2019-01-04T02:22:21.680Z,1027.83
2019-01-04T02:23:21.595Z,1027.83
2019-01-04T02:24:21.604Z,1027.79
2019-01-04T02:25:21.621Z,1027.8
2019-01-04T02:26:21.631Z,1027.82
2019-01-04T02:27:21.645Z,1027.83
2019-01-04T02:28:21.657Z,1027.79
2019-01-04T02:29:21.666Z,1027.79
2019-01-04T02:30:21.682Z,1027.78
2019-01-04T02:31:21.691Z,1027.78
2019-01-04T02:32:21.708Z,1027.8
2019-01-04T02:33:21.715Z,1027.8
2019-01-04T02:34:21.732Z,1027.8
2019-01-04T02:36:21.756Z,1027.75
2019-01-04T02:37:21.769Z,1027.75
2019-01-04T02:38:21.777Z,1027.74
2019-01-04T02:39:21.791Z,1027.69
2019-01-04T02:40:21.802Z,1027.71
2019-01-04T02:41:21.822Z,1027.64
2019-01-04T02:42:21.834Z,1027.63
2019-01-04T02:43:21.840Z,1027.64
2019-01-04T02:44:21.851Z,1027.59
2019-01-04T02:45:21.865Z,1027.6
2019-01-04T02:46:21.882Z,1027.61
2019-01-04T02:47:21.889Z,1027.6
2019-01-04T02:48:21.906Z,1027.56
2019-01-04T02:49:21.913Z,1027.52
2019-01-04T02:50:21.930Z,1027.52
2019-01-04T02:51:21.938Z,1027.49
2019-01-04T02:52:21.954Z,1027.46
2019-01-04T02:53:21.964Z,1027.41
2019-01-04T02:54:21.982Z,1027.46
2019-01-04T02:55:21.987Z,1027.45
2019-01-04T02:56:22.001Z,1027.42
2019-01-04T02:57:22.016Z,1027.43
2019-01-04T02:58:22.029Z,1027.4
2019-01-04T02:59:22.041Z,1027.44
2019-01-04T03:00:22.053Z,1027.45
2019-01-04T03:01:22.067Z,1027.46
2019-01-04T03:02:22.076Z,1027.43
2019-01-04T03:03:22.091Z,1027.39
2019-01-04T03:04:22.099Z,1027.42
2019-01-04T03:05:22.113Z,1027.39
2019-01-04T03:06:22.124Z,1027.41
2019-01-04T03:08:22.150Z,1027.41
2019-01-04T03:09:22.166Z,1027.42
2019-01-04T03:10:22.175Z,1027.37
2019-01-04T03:11:22.191Z,1027.39
2019-01-04T03:12:22.198Z,1027.35
2019-01-04T03:13:22.211Z,1027.33
2019-01-04T03:14:22.228Z,1027.32
2019-01-04T03:15:22.240Z,1027.25
2019-01-04T03:16:22.264Z,1027.27
2019-01-04T03:17:22.264Z,1027.28
2019-01-04T03:18:22.274Z,1027.24
2019-01-04T03:19:22.290Z,1027.22
2019-01-04T03:20:22.299Z,1027.18
2019-01-04T03:21:22.314Z,1027.18
2019-01-04T03:22:22.322Z,1027.15
2019-01-04T03:24:22.348Z,1027.14
2019-01-04T03:25:22.364Z,1027.11
2019-01-04T03:26:22.377Z,1027.06
2019-01-04T03:27:22.386Z,1027.08
2019-01-04T03:28:22.397Z,1027.03
2019-01-04T03:29:22.410Z,1027.04
2019-01-04T03:30:22.428Z,1027.07
2019-01-04T03:31:22.436Z,1027.06
2019-01-04T03:32:22.451Z,1027
2019-01-04T03:33:22.461Z,1026.98
2019-01-04T03:34:22.476Z,1026.94
2019-01-04T03:35:22.488Z,1026.93
2019-01-04T03:36:22.498Z,1026.87
2019-01-04T03:37:22.509Z,1026.88
2019-01-04T03:38:22.528Z,1026.91
2019-01-04T03:40:22.546Z,1026.84
2019-01-04T03:41:22.562Z,1026.84
2019-01-04T03:42:22.576Z,1026.85
2019-01-04T03:43:22.583Z,1026.87
2019-01-04T03:44:22.600Z,1026.83
2019-01-04T03:45:22.608Z,1026.8
2019-01-04T03:46:22.623Z,1026.81
2019-01-04T03:47:22.637Z,1026.8
2019-01-04T03:48:22.646Z,1026.77
2019-01-04T03:49:22.663Z,1026.73
2019-01-04T03:50:22.671Z,1026.7
2019-01-04T03:51:22.690Z,1026.68
2019-01-04T03:52:22.696Z,1026.7
2019-01-04T03:53:22.709Z,1026.64
2019-01-04T03:54:22.724Z,1026.61
2019-01-04T03:56:22.750Z,1026.55
2019-01-04T03:57:22.759Z,1026.47
2019-01-04T03:58:22.781Z,1026.46
2019-01-04T03:59:22.783Z,1026.47
2019-01-04T04:00:22.801Z,1026.45
2019-01-04T04:01:22.810Z,1026.43
2019-01-04T04:02:22.828Z,1026.46
2019-01-04T04:03:22.838Z,1026.43
2019-01-04T04:04:22.847Z,1026.45
2019-01-04T04:05:22.863Z,1026.4
2019-01-04T04:06:22.871Z,1026.37
2019-01-04T04:07:22.888Z,1026.35
2019-01-04T04:08:22.898Z,1026.38
2019-01-04T04:09:22.913Z,1026.37
2019-01-04T04:11:22.937Z,1026.32
2019-01-04T04:12:22.953Z,1026.32
2019-01-04T04:13:22.965Z,1026.29
2019-01-04T04:14:22.973Z,1026.33
2019-01-04T04:15:22.986Z,1026.28
2019-01-04T04:16:22.998Z,1026.32
2019-01-04T04:17:23.016Z,1026.28
2019-01-04T04:18:23.023Z,1026.24
2019-01-04T04:19:23.040Z,1026.23
2019-01-04T04:20:23.053Z,1026.19
2019-01-04T04:21:23.066Z,1026.23
2019-01-04T04:22:23.074Z,1026.19
2019-01-04T04:23:23.093Z,1026.2
2019-01-04T04:24:23.106Z,1026.13
2019-01-04T04:25:23.111Z,1026.13
2019-01-04T04:26:23.129Z,1026.14
2019-01-04T04:27:23.140Z,1026.11
2019-01-04T04:28:23.152Z,1026.07
2019-01-04T04:29:23.161Z,1026.12
2019-01-04T04:30:23.173Z,1026.12
2019-01-04T04:31:23.190Z,1026.13
2019-01-04T04:32:23.203Z,1026.11
2019-01-04T04:33:23.215Z,1026.15
2019-01-04T04:34:23.222Z,1026.09
2019-01-04T04:35:23.240Z,1026.16
2019-01-04T04:36:23.250Z,1026.18
2019-01-04T04:37:23.265Z,1026.2
2019-01-04T04:38:23.273Z,1026.19
2019-01-04T04:39:23.290Z,1026.13
2019-01-04T04:40:23.299Z,1026.11
2019-01-04T04:41:23.316Z,1026.08
2019-01-04T04:43:23.340Z,1026.05
2019-01-04T04:44:23.357Z,1026.04
2019-01-04T04:45:23.360Z,1026.01
2019-01-04T04:46:23.373Z,1026
2019-01-04T04:47:23.386Z,1025.97
2019-01-04T04:48:23.408Z,1025.93
2019-01-04T04:49:23.413Z,1025.95
2019-01-04T04:50:23.428Z,1025.91
2019-01-04T04:51:23.439Z,1025.94
2019-01-04T04:52:23.453Z,1025.92
2019-01-04T04:53:23.462Z,1025.97
2019-01-04T04:54:23.478Z,1026
2019-01-04T04:55:23.491Z,1025.96
2019-01-04T04:56:23.498Z,1025.95
2019-01-04T04:57:23.516Z,1025.94
2019-01-04T04:59:23.536Z,1025.91
2019-01-04T05:00:23.549Z,1025.86
2019-01-04T05:01:23.566Z,1025.9
2019-01-04T05:02:23.579Z,1025.88
2019-01-04T05:03:23.586Z,1025.81
2019-01-04T05:04:23.600Z,1025.86
2019-01-04T05:05:23.616Z,1025.85
2019-01-04T05:06:23.624Z,1025.82
2019-01-04T05:07:23.640Z,1025.81
2019-01-04T05:08:23.649Z,1025.86
2019-01-04T05:09:23.666Z,1025.83
2019-01-04T05:10:23.675Z,1025.82
2019-01-04T05:11:23.691Z,1025.83
2019-01-04T05:12:23.703Z,1025.85
2019-01-04T05:13:23.720Z,1025.81
2019-01-04T05:15:23.737Z,1025.76
2019-01-04T05:16:23.754Z,1025.75
2019-01-04T05:17:23.764Z,1025.75
2019-01-04T05:18:23.780Z,1025.73
2019-01-04T05:19:23.791Z,1025.76
2019-01-04T05:20:23.799Z,1025.77
2019-01-04T05:21:23.812Z,1025.78
2019-01-04T05:22:23.824Z,1025.71
2019-01-04T05:23:23.844Z,1025.74
2019-01-04T05:24:23.850Z,1025.7
2019-01-04T05:25:23.865Z,1025.8
2019-01-04T05:26:23.878Z,1025.83
2019-01-04T05:27:23.891Z,1025.82
2019-01-04T05:28:23.900Z,1025.84
2019-01-04T05:29:23.913Z,1025.82
2019-01-04T05:31:23.936Z,1025.9
2019-01-04T05:32:23.954Z,1025.92
2019-01-04T05:33:23.961Z,1025.91
2019-01-04T05:34:23.979Z,1025.87
2019-01-04T05:35:23.991Z,1025.89
2019-01-04T05:36:24.004Z,1025.87
2019-01-04T05:37:24.012Z,1025.81
2019-01-04T05:38:24.029Z,1025.78
2019-01-04T05:39:24.039Z,1025.79
2019-01-04T05:40:24.048Z,1025.77
2019-01-04T05:41:24.065Z,1025.66
2019-01-04T05:42:24.078Z,1025.59
2019-01-04T05:43:24.091Z,1025.53
2019-01-04T05:44:24.099Z,1025.44
2019-01-04T05:46:24.125Z,1025.41
2019-01-04T05:47:24.137Z,1025.35
2019-01-04T05:48:24.202Z,1025.36
2019-01-04T05:49:24.168Z,1025.34
2019-01-04T05:50:24.179Z,1025.32
2019-01-04T05:51:24.186Z,1025.36
2019-01-04T05:52:24.205Z,1025.29
2019-01-04T05:53:24.213Z,1025.25
2019-01-04T05:54:24.225Z,1025.3
2019-01-04T05:55:24.237Z,1025.25
2019-01-04T05:56:24.254Z,1025.24
2019-01-04T05:57:24.267Z,1025.29
2019-01-04T05:58:24.274Z,1025.31
2019-01-04T05:59:24.291Z,1025.23
2019-01-04T06:00:24.300Z,1025.23
2019-01-04T06:01:24.315Z,1025.23
2019-01-04T06:02:24.329Z,1025.21
2019-01-04T06:03:24.347Z,1025.31
2019-01-04T06:04:24.350Z,1025.28
2019-01-04T06:05:24.367Z,1025.3
2019-01-04T06:06:24.379Z,1025.38
2019-01-04T06:07:24.392Z,1025.28
2019-01-04T06:08:24.401Z,1025.33
2019-01-04T06:09:24.416Z,1025.3
2019-01-04T06:10:24.425Z,1025.28
2019-01-04T06:11:24.442Z,1025.26
2019-01-04T06:12:24.451Z,1025.24
2019-01-04T06:13:24.469Z,1025.27
2019-01-04T06:14:24.479Z,1025.3
2019-01-04T06:15:24.492Z,1025.24
2019-01-04T06:16:24.499Z,1025.25
2019-01-04T06:18:24.529Z,1025.14
2019-01-04T06:19:24.542Z,1025.1
2019-01-04T06:20:24.554Z,1025.09
2019-01-04T06:21:24.567Z,1025.09
2019-01-04T06:22:24.575Z,1025.09
2019-01-04T06:23:24.588Z,1025.1
2019-01-04T06:24:24.600Z,1025.06
2019-01-04T06:25:24.618Z,1025.08
2019-01-04T06:26:24.626Z,1025.13
2019-01-04T06:27:24.638Z,1025.15
2019-01-04T06:28:24.655Z,1025.11
2019-01-04T06:29:24.663Z,1025.07
2019-01-04T06:30:24.680Z,1025.07
2019-01-04T06:31:24.687Z,1025.08
2019-01-04T06:32:24.706Z,1025.06
2019-01-04T06:34:24.727Z,1025.08
2019-01-04T06:35:24.742Z,1025.12
2019-01-04T06:36:24.751Z,1025.14
2019-01-04T06:37:24.767Z,1025.13
2019-01-04T06:38:24.775Z,1025.08
2019-01-04T06:39:24.792Z,1025.07
2019-01-04T06:40:24.801Z,1025.05
2019-01-04T06:41:24.813Z,1024.99
2019-01-04T06:42:24.830Z,1024.98
2019-01-04T06:43:24.839Z,1024.96
2019-01-04T06:44:24.852Z,1024.92
2019-01-04T06:45:24.864Z,1024.92
2019-01-04T06:46:24.880Z,1024.87
2019-01-04T06:47:24.893Z,1024.84
2019-01-04T06:48:24.902Z,1024.88
2019-01-04T06:50:24.927Z,1024.87
2019-01-04T06:51:27.817Z,1024.85
2019-01-04T06:52:24.953Z,1024.87
2019-01-04T06:53:24.969Z,1024.85
2019-01-04T06:54:24.977Z,1024.83
2019-01-04T06:55:24.990Z,1024.85
2019-01-04T06:56:25.007Z,1024.89
2019-01-04T06:57:25.019Z,1024.91
2019-01-04T06:58:25.030Z,1024.92
2019-01-04T06:59:25.048Z,1024.88
2019-01-04T07:00:25.054Z,1024.87
2019-01-04T07:01:25.069Z,1024.87
2019-01-04T07:02:25.078Z,1024.79
2019-01-04T07:03:25.139Z,1024.83
2019-01-04T07:04:25.103Z,1024.77
2019-01-04T07:06:25.128Z,1024.76
2019-01-04T07:07:25.141Z,1024.82
2019-01-04T07:08:25.158Z,1024.82
2019-01-04T07:09:25.171Z,1024.86
2019-01-04T07:10:25.188Z,1024.81
2019-01-04T07:11:25.191Z,1024.82
2019-01-04T07:12:25.208Z,1024.85
2019-01-04T07:13:25.219Z,1024.8
2019-01-04T07:14:25.230Z,1024.79
2019-01-04T07:15:25.249Z,1024.85
2019-01-04T07:16:25.255Z,1024.76
2019-01-04T07:17:25.272Z,1024.73
2019-01-04T07:18:25.281Z,1024.72
2019-01-04T07:19:25.298Z,1024.7
2019-01-04T07:21:25.324Z,1024.7
2019-01-04T07:22:25.333Z,1024.63
2019-01-04T07:23:25.345Z,1024.62
2019-01-04T07:24:25.357Z,1024.56
2019-01-04T07:25:25.376Z,1024.54
2019-01-04T07:26:25.382Z,1024.51
2019-01-04T07:27:25.402Z,1024.59
2019-01-04T07:28:25.409Z,1024.59
2019-01-04T07:29:25.423Z,1024.54
2019-01-04T07:30:25.434Z,1024.54
2019-01-04T07:31:25.452Z,1024.6
2019-01-04T07:32:25.462Z,1024.57
2019-01-04T07:33:25.475Z,1024.54
2019-01-04T07:34:25.487Z,1024.56
2019-01-04T07:35:25.496Z,1024.55
2019-01-04T07:36:25.513Z,1024.53
2019-01-04T07:37:25.521Z,1024.61
2019-01-04T07:38:25.538Z,1024.57
2019-01-04T07:39:25.550Z,1024.54
2019-01-04T07:40:25.569Z,1024.51
2019-01-04T07:41:25.575Z,1024.54
2019-01-04T07:42:25.584Z,1024.51
2019-01-04T07:43:25.597Z,1024.56
2019-01-04T07:44:25.609Z,1024.59
2019-01-04T07:45:25.628Z,1024.56
2019-01-04T07:46:25.634Z,1024.51
2019-01-04T07:47:25.648Z,1024.51
2019-01-04T07:48:25.665Z,1024.52
2019-01-04T07:49:25.673Z,1024.52
2019-01-04T07:50:25.690Z,1024.44
2019-01-04T07:51:25.701Z,1024.41
2019-01-04T07:53:25.724Z,1024.4
2019-01-04T07:54:25.746Z,1024.38
2019-01-04T07:55:25.752Z,1024.38
2019-01-04T07:56:25.761Z,1024.38
2019-01-04T07:57:25.778Z,1024.38
2019-01-04T07:58:25.791Z,1024.35
2019-01-04T07:59:25.803Z,1024.38
2019-01-04T08:00:25.814Z,1024.34
2019-01-04T08:01:25.824Z,1024.35
2019-01-04T08:02:25.841Z,1024.33
2019-01-04T08:03:25.849Z,1024.37
2019-01-04T08:04:25.868Z,1024.33
2019-01-04T08:05:25.879Z,1024.32
2019-01-04T08:06:25.887Z,1024.33
2019-01-04T08:07:25.904Z,1024.3
2019-01-04T08:09:25.930Z,1024.26
2019-01-04T08:10:25.938Z,1024.21
2019-01-04T08:11:25.956Z,1024.15
2019-01-04T08:12:25.969Z,1024.11
2019-01-04T08:13:25.978Z,1024.12
2019-01-04T08:14:25.989Z,1024.1
2019-01-04T08:15:26.002Z,1024.05
2019-01-04T08:16:26.016Z,1023.98
2019-01-04T08:17:26.027Z,1024.02
2019-01-04T08:18:26.039Z,1024.01
2019-01-04T08:19:26.054Z,1024
2019-01-04T08:20:26.067Z,1023.96
2019-01-04T08:21:26.078Z,1024.01
2019-01-04T08:22:26.092Z,1023.95
2019-01-04T08:23:26.113Z,1024
2019-01-04T08:25:26.129Z,1023.98
2019-01-04T08:26:26.147Z,1023.96
2019-01-04T08:27:26.156Z,1023.98
2019-01-04T08:28:26.169Z,1023.99
2019-01-04T08:29:26.181Z,1023.98
2019-01-04T08:30:26.194Z,1024
2019-01-04T08:31:26.207Z,1024
2019-01-04T08:32:26.219Z,1023.98
2019-01-04T08:33:26.234Z,1023.91
2019-01-04T08:34:26.244Z,1023.94
2019-01-04T08:35:26.257Z,1023.99
2019-01-04T08:36:26.270Z,1023.92
2019-01-04T08:37:26.283Z,1023.87
2019-01-04T08:38:26.296Z,1023.93
2019-01-04T08:39:26.310Z,1023.84
2019-01-04T08:41:26.334Z,1023.84
2019-01-04T08:42:26.347Z,1023.79
2019-01-04T08:43:26.365Z,1023.81
2019-01-04T08:44:26.372Z,1023.82
2019-01-04T08:45:26.387Z,1023.84
2019-01-04T08:46:26.398Z,1023.81
2019-01-04T08:47:26.410Z,1023.74
2019-01-04T08:48:26.424Z,1023.74
2019-01-04T08:49:26.437Z,1023.75
2019-01-04T08:50:26.449Z,1023.82
2019-01-04T08:51:26.462Z,1023.76
2019-01-04T08:52:26.475Z,1023.78
2019-01-04T08:53:26.488Z,1023.76
2019-01-04T08:54:26.502Z,1023.77
2019-01-04T08:56:26.527Z,1023.74
2019-01-04T08:57:26.540Z,1023.81
2019-01-04T08:58:26.553Z,1023.73
2019-01-04T08:59:26.566Z,1023.74
2019-01-04T09:00:26.579Z,1023.75
2019-01-04T09:01:26.594Z,1023.72
2019-01-04T09:02:26.605Z,1023.64
2019-01-04T09:03:26.624Z,1023.66
2019-01-04T09:04:26.630Z,1023.62
2019-01-04T09:05:26.644Z,1023.6
2019-01-04T09:06:26.655Z,1023.58
2019-01-04T09:07:26.669Z,1023.54
2019-01-04T09:08:26.681Z,1023.53
2019-01-04T09:09:26.696Z,1023.53
2019-01-04T09:10:26.708Z,1023.52
2019-01-04T09:11:26.721Z,1023.44
2019-01-04T09:12:26.733Z,1023.4
2019-01-04T09:13:26.746Z,1023.39
2019-01-04T09:14:26.759Z,1023.35
2019-01-04T09:15:26.771Z,1023.32
2019-01-04T09:16:26.785Z,1023.3
2019-01-04T09:17:26.798Z,1023.26
2019-01-04T09:18:26.810Z,1023.26
2019-01-04T09:19:26.824Z,1023.24
2019-01-04T09:20:26.886Z,1023.24
2019-01-04T09:21:26.850Z,1023.23
2019-01-04T09:22:26.863Z,1023.19
2019-01-04T09:23:26.875Z,1023.23
2019-01-04T09:24:26.889Z,1023.2
2019-01-04T09:25:26.903Z,1023.04
2019-01-04T09:26:26.914Z,1023.16
2019-01-04T09:28:26.950Z,1023.2
2019-01-04T09:29:26.954Z,1023.18
2019-01-04T09:30:26.966Z,1023.18
2019-01-04T09:31:26.980Z,1023.23
2019-01-04T09:32:26.992Z,1023.16
2019-01-04T09:33:27.006Z,1023.2
2019-01-04T09:34:27.018Z,1023.2
2019-01-04T09:35:27.031Z,1023.18
2019-01-04T09:36:27.051Z,1023.15
2019-01-04T09:37:27.057Z,1023.13
2019-01-04T09:38:27.070Z,1023.05
2019-01-04T09:39:27.084Z,1023.03
2019-01-04T09:40:27.097Z,1023.01
2019-01-04T09:41:27.109Z,1023.02
2019-01-04T09:42:27.123Z,1022.99
2019-01-04T09:44:27.149Z,1022.87
2019-01-04T09:45:27.161Z,1022.86
2019-01-04T09:46:27.176Z,1022.87
2019-01-04T09:47:27.188Z,1022.87
2019-01-04T09:48:27.200Z,1022.89
2019-01-04T09:49:27.214Z,1022.84
2019-01-04T09:50:27.227Z,1022.75
2019-01-04T09:51:27.240Z,1022.73
2019-01-04T09:52:27.253Z,1022.68
2019-01-04T09:53:27.266Z,1022.61
2019-01-04T09:54:27.280Z,1022.64
2019-01-04T09:55:27.293Z,1022.65
2019-01-04T09:56:27.305Z,1022.6
2019-01-04T09:57:27.320Z,1022.59
2019-01-04T09:58:27.332Z,1022.53
2019-01-04T10:00:27.357Z,1022.52
2019-01-04T10:01:27.374Z,1022.54
2019-01-04T10:02:27.385Z,1022.55
2019-01-04T10:03:27.396Z,1022.44
2019-01-04T10:04:27.410Z,1022.42
2019-01-04T10:05:27.425Z,1022.42
2019-01-04T10:06:27.437Z,1022.43
2019-01-04T10:07:27.453Z,1022.47
2019-01-04T10:08:27.462Z,1022.41
2019-01-04T10:09:27.476Z,1022.42
2019-01-04T10:10:27.488Z,1022.32
2019-01-04T10:11:27.501Z,1022.35
2019-01-04T10:12:27.515Z,1022.31
2019-01-04T10:13:27.528Z,1022.3
2019-01-04T10:14:27.541Z,1022.3
2019-01-04T10:16:27.582Z,1022.3
2019-01-04T10:17:27.581Z,1022.24
2019-01-04T10:18:27.594Z,1022.29
2019-01-04T10:19:27.607Z,1022.18
2019-01-04T10:20:27.621Z,1022.18
2019-01-04T10:21:27.632Z,1022.23
2019-01-04T10:22:27.646Z,1022.21
2019-01-04T10:23:27.659Z,1022.15
2019-01-04T10:24:27.673Z,1022.15
2019-01-04T10:25:27.685Z,1022.08
2019-01-04T10:26:27.699Z,1022.05
2019-01-04T10:27:27.712Z,1022.02
2019-01-04T10:28:27.725Z,1022.04
2019-01-04T10:29:27.738Z,1021.96
2019-01-04T10:31:27.767Z,1021.94
2019-01-04T10:32:27.778Z,1021.82
2019-01-04T10:33:27.792Z,1021.79
2019-01-04T10:34:27.805Z,1021.72
2019-01-04T10:35:27.819Z,1021.71
2019-01-04T10:36:27.831Z,1021.73
2019-01-04T10:37:27.845Z,1021.63
2019-01-04T10:38:27.858Z,1021.64
2019-01-04T10:39:27.871Z,1021.66
2019-01-04T10:40:27.884Z,1021.53
2019-01-04T10:41:27.897Z,1021.62
2019-01-04T10:42:27.911Z,1021.57
2019-01-04T10:43:27.924Z,1021.51
2019-01-04T10:44:27.937Z,1021.45
2019-01-04T10:45:27.951Z,1021.38
2019-01-04T10:46:27.964Z,1021.43
2019-01-04T10:47:27.977Z,1021.4
2019-01-04T10:48:27.990Z,1021.35
2019-01-04T10:49:28.004Z,1021.37
2019-01-04T10:50:28.016Z,1021.33
2019-01-04T10:51:28.030Z,1021.18
2019-01-04T10:52:28.043Z,1021.14
2019-01-04T10:53:28.060Z,1021.1
2019-01-04T10:54:28.072Z,1021.05
2019-01-04T10:55:28.094Z,1021.02
2019-01-04T10:56:28.100Z,1020.99
2019-01-04T10:57:28.110Z,1020.96
2019-01-04T10:58:28.123Z,1020.97
2019-01-04T10:59:28.137Z,1020.99
2019-01-04T11:00:28.150Z,1020.93
2019-01-04T11:01:28.162Z,1020.98
2019-01-04T11:03:28.189Z,1020.91
2019-01-04T11:04:28.203Z,1020.92
2019-01-04T11:05:28.216Z,1020.83
2019-01-04T11:06:28.230Z,1020.8
2019-01-04T11:07:28.243Z,1020.87
2019-01-04T11:08:28.259Z,1020.89
2019-01-04T11:09:28.269Z,1020.84
2019-01-04T11:10:28.283Z,1020.78
2019-01-04T11:11:28.296Z,1020.74
2019-01-04T11:12:28.312Z,1020.71
2019-01-04T11:13:28.323Z,1020.77
2019-01-04T11:14:28.337Z,1020.7
2019-01-04T11:15:28.351Z,1020.63
2019-01-04T11:16:28.363Z,1020.61
2019-01-04T11:17:28.381Z,1020.56
2019-01-04T11:19:28.404Z,1020.5
2019-01-04T11:20:28.419Z,1020.54
2019-01-04T11:21:28.431Z,1020.48
2019-01-04T11:22:28.444Z,1020.46
2019-01-04T11:23:28.457Z,1020.48
2019-01-04T11:24:28.471Z,1020.45
2019-01-04T11:25:28.485Z,1020.45
2019-01-04T11:26:28.499Z,1020.38
2019-01-04T11:27:28.512Z,1020.44
2019-01-04T11:28:28.526Z,1020.39
2019-01-04T11:29:28.539Z,1020.38
2019-01-04T11:30:28.553Z,1020.36
2019-01-04T11:31:28.566Z,1020.27
2019-01-04T11:32:28.580Z,1020.23
2019-01-04T11:33:28.593Z,1020.26
2019-01-04T11:35:28.621Z,1020.2
2019-01-04T11:36:28.634Z,1020.15
2019-01-04T11:37:28.653Z,1020.14
2019-01-04T11:38:28.660Z,1020.08
2019-01-04T11:39:28.674Z,1020.04
2019-01-04T11:40:28.688Z,1019.98
2019-01-04T11:41:28.701Z,1019.96
2019-01-04T11:42:28.715Z,1019.82
2019-01-04T11:43:28.728Z,1019.84
2019-01-04T11:44:28.742Z,1019.82
2019-01-04T11:45:28.754Z,1019.81
2019-01-04T11:46:28.769Z,1019.7
2019-01-04T11:47:28.784Z,1019.72
2019-01-04T11:48:28.796Z,1019.55
2019-01-04T11:49:28.809Z,1019.64
2019-01-04T11:51:28.837Z,1019.64
2019-01-04T11:52:31.213Z,1019.54
2019-01-04T11:53:28.866Z,1019.56
2019-01-04T11:54:28.879Z,1019.53
2019-01-04T11:55:28.891Z,1019.53
2019-01-04T11:56:28.905Z,1019.45
2019-01-04T11:57:28.918Z,1019.58
2019-01-04T11:58:28.932Z,1019.58
2019-01-04T11:59:28.946Z,1019.53
2019-01-04T12:00:28.959Z,1019.5
2019-01-04T12:01:28.976Z,1019.48
2019-01-04T12:02:28.989Z,1019.44
2019-01-04T12:03:29.000Z,1019.39
2019-01-04T12:04:29.017Z,1019.36
2019-01-04T12:06:29.042Z,1019.33
2019-01-04T12:07:29.055Z,1019.32
2019-01-04T12:08:29.069Z,1019.28
2019-01-04T12:09:29.083Z,1019.31
2019-01-04T12:10:29.096Z,1019.25
2019-01-04T12:11:29.110Z,1019.29
2019-01-04T12:12:29.123Z,1019.35
2019-01-04T12:13:29.139Z,1019.37
2019-01-04T12:14:29.154Z,1019.37
2019-01-04T12:15:29.166Z,1019.44
2019-01-04T12:16:29.178Z,1019.49
2019-01-04T12:17:29.194Z,1019.5
2019-01-04T12:18:29.210Z,1019.54
2019-01-04T12:19:29.219Z,1019.53
2019-01-04T12:20:29.232Z,1019.51
2019-01-04T12:21:29.247Z,1019.61
2019-01-04T12:22:30.042Z,1019.6
2019-01-04T12:23:29.280Z,1019.6
2019-01-04T12:24:29.287Z,1019.63
2019-01-04T12:25:29.302Z,1019.55
2019-01-04T12:26:29.316Z,1019.62
2019-01-04T12:27:29.328Z,1019.57
2019-01-04T12:28:29.342Z,1019.61
2019-01-04T12:29:29.355Z,1019.61
2019-01-04T12:30:29.369Z,1019.59
2019-01-04T12:31:29.384Z,1019.59
2019-01-04T12:32:29.396Z,1019.59
2019-01-04T12:33:29.409Z,1019.6
2019-01-04T12:34:29.423Z,1019.58
2019-01-04T12:35:29.437Z,1019.62
2019-01-04T12:36:29.450Z,1019.57
2019-01-04T12:38:29.480Z,1019.56
2019-01-04T12:39:29.496Z,1019.49
2019-01-04T12:40:29.507Z,1019.49
2019-01-04T12:41:29.519Z,1019.48
2019-01-04T12:42:29.532Z,1019.44
2019-01-04T12:43:29.546Z,1019.41
2019-01-04T12:44:29.559Z,1019.44
2019-01-04T12:45:29.574Z,1019.48
2019-01-04T12:46:29.588Z,1019.53
2019-01-04T12:47:29.600Z,1019.49
2019-01-04T12:48:29.614Z,1019.62